Time;durP1;ratioP1;P1;durP2;ratioP2;P2;SDS_P1;SDS_P2;PMS_P1;PMS_P2;Temp;Humidity;BMP_temperature;BMP_pressure;BME280_temperature;BME280_humidity;BME280_pressure;Samples;Min_cycle;Max_cycle;Signal;HPM_P1;HPM_P2
2023/04/26 00:01:38;;;;;;;8.07;2.83;;;;;;;3.34;100.00;101761.72;5032602;28;20049;-79
2023/04/26 00:04:07;;;;;;;6.93;2.67;;;;;;;3.32;100.00;101766.84;5052453;28;20033;-79
2023/04/26 00:06:36;;;;;;;5.72;2.90;;;;;;;3.31;100.00;101770.28;5048946;28;20041;-79
2023/04/26 00:09:04;;;;;;;9.63;2.72;;;;;;;3.32;100.00;101772.06;5016798;28;20049;-79
2023/04/26 00:11:31;;;;;;;9.63;2.83;;;;;;;3.34;100.00;101774.75;5035703;28;20071;-78
2023/04/26 00:13:58;;;;;;;7.15;2.72;;;;;;;3.35;100.00;101773.94;4985478;28;20038;-79
2023/04/26 00:16:26;;;;;;;10.13;2.78;;;;;;;3.35;100.00;101777.44;5035686;28;20048;-78
2023/04/26 00:18:53;;;;;;;8.43;2.80;;;;;;;3.37;100.00;101773.19;5013996;28;20053;-79
2023/04/26 00:21:21;;;;;;;9.68;2.60;;;;;;;3.39;100.00;101771.53;5029211;28;20075;-78
2023/04/26 00:23:48;;;;;;;13.40;3.15;;;;;;;3.39;100.00;101776.75;5043421;28;20053;-79
2023/04/26 00:26:15;;;;;;;17.02;3.25;;;;;;;3.36;100.00;101776.59;5036508;28;20056;-78
2023/04/26 00:28:42;;;;;;;9.80;2.88;;;;;;;3.32;100.00;101779.88;5009036;28;20064;-78
2023/04/26 00:31:14;;;;;;;6.90;2.58;;;;;;;3.26;100.00;101777.88;5033049;28;20406;-77
2023/04/26 00:33:42;;;;;;;9.07;2.63;;;;;;;3.22;100.00;101772.47;5034927;28;20044;-79
2023/04/26 00:36:11;;;;;;;9.15;2.83;;;;;;;3.21;100.00;101770.66;5015101;28;20046;-79
2023/04/26 00:38:38;;;;;;;5.93;2.97;;;;;;;3.19;100.00;101773.19;5034990;28;20045;-79
2023/04/26 00:41:06;;;;;;;7.75;3.28;;;;;;;3.19;100.00;101774.91;5030163;28;20053;-79
2023/04/26 00:43:33;;;;;;;10.48;2.85;;;;;;;3.16;100.00;101779.94;4988566;28;20052;-78
2023/04/26 00:46:00;;;;;;;8.55;2.90;;;;;;;3.14;100.00;101774.69;5035908;28;20053;-79
2023/04/26 00:48:29;;;;;;;8.23;2.55;;;;;;;3.11;100.00;101765.00;5041842;28;20037;-78
2023/04/26 00:50:56;;;;;;;8.73;2.60;;;;;;;3.08;100.00;101764.88;5032541;28;20041;-78
2023/04/26 00:53:24;;;;;;;7.30;2.53;;;;;;;3.08;100.00;101764.88;5027590;28;20044;-78
2023/04/26 00:55:52;;;;;;;10.00;3.15;;;;;;;3.09;100.00;101758.81;5017266;28;20780;-78
2023/04/26 00:58:20;;;;;;;7.88;2.47;;;;;;;3.09;100.00;101764.03;5014576;28;20064;-78
2023/04/26 01:00:49;;;;;;;9.55;2.63;;;;;;;3.10;100.00;101752.81;5011784;28;20045;-78
2023/04/26 01:03:16;;;;;;;9.70;2.60;;;;;;;3.12;100.00;101755.50;5039250;28;20050;-77
2023/04/26 01:05:44;;;;;;;7.18;2.65;;;;;;;3.12;100.00;101756.38;5026409;28;20509;-78
2023/04/26 01:08:15;;;;;;;9.00;2.75;;;;;;;3.12;100.00;101748.56;5040129;28;20075;-78
2023/04/26 01:10:43;;;;;;;9.75;2.75;;;;;;;3.13;100.00;101752.94;5011788;28;20068;-78
2023/04/26 01:13:11;;;;;;;7.63;2.42;;;;;;;3.16;100.00;101748.69;5011354;28;20042;-78
2023/04/26 01:15:45;;;;;;;7.68;2.55;;;;;;;3.19;100.00;101760.16;4988341;28;20052;-78
2023/04/26 01:18:13;;;;;;;6.72;2.88;;;;;;;3.23;100.00;101761.19;5030781;28;20060;-78
2023/04/26 01:20:45;;;;;;;6.28;2.22;;;;;;;3.23;100.00;101753.38;5040745;28;20120;-78
2023/04/26 01:23:13;;;;;;;5.15;2.20;;;;;;;3.27;100.00;101760.53;5035723;28;20196;-78
2023/04/26 01:25:40;;;;;;;7.75;2.35;;;;;;;3.30;100.00;101760.69;5023325;28;20045;-78
2023/04/26 01:28:07;;;;;;;5.78;2.33;;;;;;;3.33;100.00;101755.63;5024690;28;20048;-78
2023/04/26 01:30:35;;;;;;;14.68;2.65;;;;;;;3.36;100.00;101758.34;4991177;28;20076;-78
2023/04/26 01:33:02;;;;;;;7.35;2.25;;;;;;;3.41;100.00;101758.59;5009026;28;20053;-78
2023/04/26 01:35:30;;;;;;;6.32;2.03;;;;;;;3.43;100.00;101765.66;5040856;28;20048;-78
2023/04/26 01:37:57;;;;;;;5.13;1.65;;;;;;;3.46;100.00;101760.59;5048672;28;20492;-78
2023/04/26 01:40:24;;;;;;;7.50;2.15;;;;;;;3.50;100.00;101764.22;5031681;28;20053;-78
2023/04/26 01:42:51;;;;;;;5.07;1.80;;;;;;;3.51;100.00;101772.09;5012826;28;20534;-79
2023/04/26 01:45:19;;;;;;;6.60;2.30;;;;;;;3.52;100.00;101775.63;5002810;28;20049;-78
2023/04/26 01:48:05;;;;;;;7.70;2.30;;;;;;;3.55;100.00;101778.34;5031675;28;20056;-78
2023/04/26 01:50:33;;;;;;;7.78;2.22;;;;;;;3.56;100.00;101779.25;5043904;28;20560;-78
2023/04/26 01:53:00;;;;;;;5.18;2.45;;;;;;;3.54;100.00;101787.00;5015594;28;20064;-78
2023/04/26 01:55:27;;;;;;;7.75;1.80;;;;;;;3.49;100.00;101776.34;5046698;28;20045;-78
2023/04/26 01:57:55;;;;;;;7.70;2.58;;;;;;;3.50;100.00;101777.25;5028390;28;20049;-78
2023/04/26 02:00:22;;;;;;;9.30;2.15;;;;;;;3.49;100.00;101771.13;5008576;28;20056;-78
2023/04/26 02:02:53;;;;;;;7.20;2.53;;;;;;;3.48;100.00;101766.75;5010269;28;20061;-78
2023/04/26 02:05:23;;;;;;;8.60;2.42;;;;;;;3.43;100.00;101769.97;5045901;28;20075;-78
2023/04/26 02:07:50;;;;;;;6.85;2.63;;;;;;;3.39;100.00;101765.44;5043535;28;20505;-78
2023/04/26 02:10:17;;;;;;;8.90;2.90;;;;;;;3.32;100.00;101775.56;5039324;28;20049;-78
2023/04/26 02:12:45;;;;;;;8.13;2.95;;;;;;;3.25;100.00;101775.19;5046251;28;20049;-78
2023/04/26 02:15:12;;;;;;;10.80;3.08;;;;;;;3.17;100.00;101768.72;5027996;28;20068;-78
2023/04/26 02:17:39;;;;;;;4.10;2.20;;;;;;;3.11;100.00;101770.22;4990811;28;20049;-78
2023/04/26 02:20:10;;;;;;;4.80;2.30;;;;;;;3.06;100.00;101769.13;5013808;28;20518;-79
2023/04/26 02:22:37;;;;;;;10.73;2.90;;;;;;;3.05;100.00;101769.03;5026079;28;20045;-78
2023/04/26 02:25:06;;;;;;;9.40;2.88;;;;;;;3.03;100.00;101765.47;5023847;28;20056;-78
2023/04/26 02:27:33;;;;;;;9.05;2.70;;;;;;;2.97;100.00;101771.28;5037679;28;20049;-78
2023/04/26 02:30:00;;;;;;;9.95;2.80;;;;;;;2.94;100.00;101776.31;5040196;28;20064;-78
2023/04/26 02:32:28;;;;;;;6.55;2.67;;;;;;;2.90;100.00;101775.28;5013686;28;20056;-78
2023/04/26 02:34:56;;;;;;;8.18;2.88;;;;;;;2.87;100.00;101769.94;5017789;28;20046;-78
2023/04/26 02:37:25;;;;;;;7.43;2.70;;;;;;;2.84;100.00;101772.38;5026680;28;20041;-78
2023/04/26 02:39:53;;;;;;;8.15;2.40;;;;;;;2.82;100.00;101767.91;5031059;28;20052;-78
2023/04/26 02:42:20;;;;;;;8.75;2.47;;;;;;;2.79;100.00;101765.16;5028505;28;20053;-78
2023/04/26 02:44:47;;;;;;;8.85;3.05;;;;;;;2.77;100.00;101770.28;5010184;28;20057;-78
2023/04/26 02:47:15;;;;;;;3.85;2.60;;;;;;;2.74;100.00;101770.13;5009085;28;20048;-78
2023/04/26 02:49:43;;;;;;;6.72;2.88;;;;;;;2.71;100.00;101768.25;4978908;28;20053;-78
2023/04/26 02:52:14;;;;;;;9.77;3.60;;;;;;;2.67;100.00;101761.13;5031321;28;20057;-78
2023/04/26 02:54:41;;;;;;;10.00;3.10;;;;;;;2.65;100.00;101767.09;5037826;28;20079;-78
2023/04/26 02:57:08;;;;;;;4.50;2.80;;;;;;;2.62;100.00;101766.91;5019283;28;20049;-78
2023/04/26 02:59:36;;;;;;;7.57;2.92;;;;;;;2.58;100.00;101763.25;5027488;28;20053;-78
2023/04/26 03:02:03;;;;;;;8.32;2.60;;;;;;;2.56;100.00;101772.69;5002432;28;20054;-78
2023/04/26 03:04:34;;;;;;;5.82;2.80;;;;;;;2.54;100.00;101769.13;4959387;28;20045;-78
2023/04/26 03:07:02;;;;;;;6.00;2.60;;;;;;;2.56;100.00;101775.31;5031610;28;20050;-78
2023/04/26 03:09:30;;;;;;;4.38;2.72;;;;;;;2.51;100.00;101774.16;5006886;28;20050;-78
2023/04/26 03:11:57;;;;;;;7.43;2.75;;;;;;;2.46;100.00;101760.94;5031144;28;20050;-78
2023/04/26 03:14:25;;;;;;;10.68;3.15;;;;;;;2.42;100.00;101758.09;5028726;28;20056;-78
2023/04/26 03:16:54;;;;;;;10.57;2.70;;;;;;;2.41;100.00;101756.31;5026244;28;20056;-78
2023/04/26 03:19:22;;;;;;;12.30;3.35;;;;;;;2.37;100.00;101749.19;5005173;28;20053;-78
2023/04/26 03:21:49;;;;;;;11.18;3.22;;;;;;;2.36;100.00;101753.47;5012226;28;20049;-77
2023/04/26 03:24:17;;;;;;;11.98;3.75;;;;;;;2.36;100.00;101753.47;4988932;28;20046;-77
2023/04/26 03:26:45;;;;;;;10.20;3.08;;;;;;;2.36;100.00;101748.25;5018124;28;20045;-77
2023/04/26 03:29:13;;;;;;;11.70;5.15;;;;;;;2.39;100.00;101752.75;5021021;28;20045;-78
2023/04/26 03:31:40;;;;;;;11.07;3.63;;;;;;;2.41;100.00;101748.50;5037258;28;20052;-78
2023/04/26 03:34:08;;;;;;;4.30;3.08;;;;;;;2.43;100.00;101763.38;4992010;28;20049;-78
2023/04/26 03:36:35;;;;;;;7.45;2.58;;;;;;;2.44;100.00;101759.06;5032581;28;20387;-78
2023/04/26 03:39:05;;;;;;;7.07;2.80;;;;;;;2.41;100.00;101765.00;5037747;28;20045;-78
2023/04/26 03:41:35;;;;;;;8.93;3.08;;;;;;;2.42;100.00;101756.41;5021506;28;20052;-78
2023/04/26 03:44:05;;;;;;;7.80;2.72;;;;;;;2.45;100.00;101758.25;5032084;28;20053;-78
2023/04/26 03:46:32;;;;;;;10.07;2.85;;;;;;;2.49;100.00;101750.66;5008996;28;20507;-78
2023/04/26 03:49:00;;;;;;;4.18;2.30;;;;;;;2.58;100.00;101754.56;4994536;28;20052;-78
2023/04/26 03:51:28;;;;;;;6.25;2.90;;;;;;;2.65;100.00;101754.06;5007432;28;20053;-77
2023/04/26 03:53:55;;;;;;;6.93;2.80;;;;;;;2.72;100.00;101754.44;5047516;28;20048;-78
2023/04/26 03:56:22;;;;;;;6.28;2.30;;;;;;;2.78;100.00;101747.72;5050346;28;20041;-77
2023/04/26 03:58:50;;;;;;;12.13;3.05;;;;;;;2.86;100.00;101752.50;5016447;28;20030;-78
2023/04/26 04:01:19;;;;;;;4.05;2.55;;;;;;;2.94;100.00;101755.50;5014754;28;20073;-77
2023/04/26 04:03:46;;;;;;;4.65;2.30;;;;;;;3.01;100.00;101757.56;5021585;28;20049;-78
2023/04/26 04:06:15;;;;;;;7.57;2.05;;;;;;;3.08;100.00;101763.97;4969771;28;20068;-77
2023/04/26 04:08:42;;;;;;;5.25;2.30;;;;;;;3.12;100.00;101763.31;5025147;28;20052;-78
2023/04/26 04:11:10;;;;;;;4.68;2.10;;;;;;;3.18;100.00;101758.38;5019448;28;20049;-77
2023/04/26 04:13:38;;;;;;;9.57;2.33;;;;;;;3.22;100.00;101756.81;5023317;28;20056;-78
2023/04/26 04:16:08;;;;;;;5.38;2.30;;;;;;;3.25;100.00;101757.88;5045133;28;20040;-77
2023/04/26 04:18:36;;;;;;;9.18;2.97;;;;;;;3.26;100.00;101759.63;5021418;28;20048;-78
2023/04/26 04:21:03;;;;;;;5.78;2.35;;;;;;;3.31;100.00;101760.75;4985254;28;20410;-77
2023/04/26 04:23:31;;;;;;;7.18;2.47;;;;;;;3.34;100.00;101756.50;5008925;28;20061;-77
2023/04/26 04:26:00;;;;;;;6.90;2.40;;;;;;;3.35;100.00;101764.41;5022532;28;20055;-77
2023/04/26 04:28:28;;;;;;;4.07;2.30;;;;;;;3.36;100.00;101774.00;5047503;28;20053;-78
2023/04/26 04:30:55;;;;;;;5.75;2.30;;;;;;;3.37;100.00;101769.69;5031241;28;20029;-78
2023/04/26 04:33:27;;;;;;;7.75;2.67;;;;;;;3.36;100.00;101774.00;5040093;28;20045;-78
2023/04/26 04:35:56;;;;;;;4.75;2.30;;;;;;;3.32;100.00;101774.66;5031070;28;20506;-78
2023/04/26 04:38:24;;;;;;;4.45;2.30;;;;;;;3.28;100.00;101780.56;4986360;28;20159;-78
2023/04/26 04:40:52;;;;;;;5.13;2.15;;;;;;;3.21;100.00;101771.53;5036575;28;20048;-78
2023/04/26 04:43:20;;;;;;;7.43;2.50;;;;;;;3.15;100.00;101778.19;5041401;28;20052;-77
2023/04/26 04:45:48;;;;;;;4.75;2.47;;;;;;;3.10;100.00;101778.88;5024358;28;20045;-78
2023/04/26 04:48:15;;;;;;;4.95;1.92;;;;;;;3.05;100.00;101777.75;5023701;28;20053;-78
2023/04/26 04:50:44;;;;;;;5.07;2.53;;;;;;;3.06;100.00;101774.31;5036777;28;20060;-78
2023/04/26 04:53:11;;;;;;;6.10;2.28;;;;;;;3.06;100.00;101779.53;4988458;28;20060;-77
2023/04/26 04:55:39;;;;;;;7.45;2.20;;;;;;;3.07;100.00;101775.22;5006060;28;20060;-78
2023/04/26 04:58:07;;;;;;;8.43;2.40;;;;;;;3.07;100.00;101770.00;5025311;28;20049;-77
2023/04/26 05:00:36;;;;;;;8.68;2.15;;;;;;;3.07;100.00;101776.09;5024552;28;20056;-78
2023/04/26 05:03:22;;;;;;;3.15;2.33;;;;;;;3.09;100.00;101766.63;5042263;28;20064;-77
2023/04/26 05:05:50;;;;;;;5.18;2.20;;;;;;;3.11;100.00;101777.13;5017948;28;20419;-78
2023/04/26 05:08:18;;;;;;;4.43;1.92;;;;;;;3.12;100.00;101777.22;4998694;28;20411;-78
2023/04/26 05:10:46;;;;;;;4.85;2.47;;;;;;;3.24;100.00;101778.63;5018251;28;20173;-78
2023/04/26 05:13:13;;;;;;;5.60;2.20;;;;;;;3.36;100.00;101774.00;5026134;28;20514;-77
2023/04/26 05:15:41;;;;;;;6.32;2.53;;;;;;;3.50;100.00;101779.88;5016198;28;20057;-78
2023/04/26 05:18:08;;;;;;;5.13;2.15;;;;;;;3.62;100.00;101769.13;5029214;28;20045;-78
2023/04/26 05:20:36;;;;;;;3.10;2.28;;;;;;;3.74;100.00;101780.09;4999553;28;20057;-78
2023/04/26 05:23:03;;;;;;;4.80;2.30;;;;;;;3.80;100.00;101764.75;4980589;28;20052;-77
2023/04/26 05:25:35;;;;;;;3.90;2.60;;;;;;;3.89;100.00;101767.78;5026461;28;20049;-77
2023/04/26 05:28:14;;;;;;;5.72;2.22;;;;;;;4.01;100.00;101770.03;5005385;28;20049;-78
2023/04/26 05:31:08;;;;;;;5.05;2.13;;;;;;;4.14;100.00;101763.66;5011674;28;20060;-78
2023/04/26 05:33:56;;;;;;;6.43;1.95;;;;;;;4.27;100.00;101765.97;5016724;28;20084;-78
2023/04/26 05:36:29;;;;;;;6.75;2.17;;;;;;;4.37;100.00;101774.19;5040635;28;20045;-77
2023/04/26 05:38:56;;;;;;;4.60;2.38;;;;;;;4.44;100.00;101769.31;4989643;28;20543;-77
2023/04/26 05:41:25;;;;;;;8.85;2.42;;;;;;;4.60;100.00;101770.84;5009902;28;20494;-78
2023/04/26 05:43:53;;;;;;;4.22;2.03;;;;;;;5.00;100.00;101779.44;5017681;28;20053;-78
2023/04/26 05:46:21;;;;;;;6.10;2.30;;;;;;;5.26;100.00;101770.94;4986453;28;20053;-77
2023/04/26 05:48:49;;;;;;;3.80;2.08;;;;;;;5.45;100.00;101774.28;5022406;28;20045;-77
2023/04/26 05:51:16;;;;;;;5.18;1.70;;;;;;;5.68;100.00;101776.88;5025011;28;20045;-77
2023/04/26 05:53:44;;;;;;;5.55;2.17;;;;;;;5.79;100.00;101773.81;4984928;28;20053;-76
2023/04/26 05:56:11;;;;;;;6.18;2.17;;;;;;;5.89;100.00;101785.53;5006984;28;20053;-77
2023/04/26 05:58:39;;;;;;;6.72;2.28;;;;;;;6.09;100.00;101790.63;5034980;28;20053;-77
2023/04/26 06:01:07;;;;;;;5.40;2.33;;;;;;;6.36;100.00;101786.38;5016758;28;20414;-78
2023/04/26 06:03:36;;;;;;;5.50;2.20;;;;;;;6.45;100.00;101780.59;5041432;28;20458;-77
2023/04/26 06:06:04;;;;;;;4.68;2.33;;;;;;;6.58;100.00;101793.28;5032125;28;20049;-77
2023/04/26 06:08:32;;;;;;;7.63;2.20;;;;;;;6.78;100.00;101791.31;5034759;28;20041;-77
2023/04/26 06:10:59;;;;;;;3.95;2.10;;;;;;;7.02;100.00;101779.91;4970155;28;20041;-77
2023/04/26 06:13:27;;;;;;;5.75;1.67;;;;;;;7.18;100.00;101790.03;4982342;28;20522;-77
2023/04/26 06:15:54;;;;;;;4.60;1.75;;;;;;;7.28;100.00;101783.34;5038838;28;20052;-77
2023/04/26 06:18:21;;;;;;;8.80;2.55;;;;;;;7.34;100.00;101791.41;4991316;28;20424;-78
2023/04/26 06:20:50;;;;;;;8.32;2.05;;;;;;;7.42;100.00;101782.03;5031769;28;20380;-78
2023/04/26 06:23:17;;;;;;;6.95;2.13;;;;;;;7.49;100.00;101787.50;5028375;28;20053;-78
2023/04/26 06:25:46;;;;;;;8.48;1.60;;;;;;;7.37;100.00;101787.97;4985634;28;20050;-77
2023/04/26 06:28:14;;;;;;;3.53;1.52;;;;;;;7.23;100.00;101792.78;5001814;28;20053;-78
2023/04/26 06:30:42;;;;;;;5.85;1.80;;;;;;;7.04;100.00;101793.94;5029270;28;20048;-77
2023/04/26 06:33:09;;;;;;;6.55;2.10;;;;;;;6.81;100.00;101798.41;5017013;28;20045;-77
2023/04/26 06:35:42;;;;;;;8.10;1.80;;;;;;;6.67;100.00;101803.16;5021315;28;20057;-77
2023/04/26 06:38:11;;;;;;;4.07;1.83;;;;;;;6.75;100.00;101798.22;5048207;28;20072;-78
2023/04/26 06:40:39;;;;;;;6.93;2.40;;;;;;;6.79;100.00;101797.47;4992917;28;20072;-79
2023/04/26 06:43:07;;;;;;;6.80;1.92;;;;;;;6.77;100.00;101802.66;5043670;28;20057;-78
2023/04/26 06:45:44;;;;;;;5.38;1.92;;;;;;;6.78;100.00;101796.56;5033404;28;20053;-78
2023/04/26 06:48:11;;;;;;;3.95;1.98;;;;;;;6.86;100.00;101806.41;5032474;28;20052;-77
2023/04/26 06:50:39;;;;;;;4.65;1.70;;;;;;;6.93;100.00;101801.44;4986240;28;20183;-78
2023/04/26 06:53:07;;;;;;;6.03;2.72;;;;;;;6.99;100.00;101804.28;5032806;28;20064;-77
2023/04/26 06:55:34;;;;;;;5.43;1.90;;;;;;;7.10;100.00;101801.97;5028134;28;20048;-78
2023/04/26 06:58:02;;;;;;;5.13;2.17;;;;;;;7.18;100.00;101802.22;4991881;28;20041;-77
2023/04/26 07:00:29;;;;;;;9.93;2.20;;;;;;;7.23;100.00;101801.53;5034364;28;20045;-77
2023/04/26 07:02:56;;;;;;;10.40;2.22;;;;;;;7.34;100.00;101798.38;5008267;28;20037;-78
2023/04/26 07:05:24;;;;;;;10.52;2.92;;;;;;;7.55;100.00;101808.66;5026453;28;20052;-78
2023/04/26 07:07:52;;;;;;;5.97;2.05;;;;;;;7.78;100.00;101804.97;5012954;28;20037;-79
2023/04/26 07:10:20;;;;;;;4.30;1.80;;;;;;;7.95;100.00;101801.97;5009604;28;20044;-78
2023/04/26 07:12:47;;;;;;;4.72;2.33;;;;;;;7.97;100.00;101800.28;4985076;28;20041;-77
2023/04/26 07:15:14;;;;;;;5.75;1.70;;;;;;;7.92;100.00;101813.28;5016650;28;20045;-77
2023/04/26 07:17:42;;;;;;;5.70;1.80;;;;;;;7.87;100.00;101814.00;5044379;28;20041;-78
2023/04/26 07:20:09;;;;;;;4.63;2.15;;;;;;;7.80;100.00;101810.28;5023779;28;20498;-77
2023/04/26 07:22:37;;;;;;;7.80;1.88;;;;;;;7.66;100.00;101812.50;5011082;28;20060;-78
2023/04/26 07:25:05;;;;;;;9.27;2.17;;;;;;;7.54;100.00;101817.34;5026978;28;20441;-78
2023/04/26 07:27:34;;;;;;;6.00;1.92;;;;;;;7.40;100.00;101817.81;4997493;28;20056;-78
2023/04/26 07:30:01;;;;;;;7.65;2.85;;;;;;;7.34;100.00;101815.00;5029445;28;20045;-78
2023/04/26 07:32:28;;;;;;;5.63;2.00;;;;;;;7.26;100.00;101818.22;5024153;28;20060;-78
2023/04/26 07:34:56;;;;;;;4.75;1.70;;;;;;;7.23;100.00;101817.28;5009467;28;20072;-78
2023/04/26 07:37:23;;;;;;;4.85;2.05;;;;;;;7.25;100.00;101809.47;5022645;28;20462;-77
2023/04/26 07:39:50;;;;;;;6.07;2.13;;;;;;;7.22;100.00;101810.25;5020242;28;20045;-78
2023/04/26 07:42:18;;;;;;;4.93;1.88;;;;;;;7.29;100.00;101810.47;5028346;28;20054;-77
2023/04/26 07:44:47;;;;;;;7.97;2.22;;;;;;;7.39;100.00;101815.13;4987058;28;20056;-78
2023/04/26 07:47:14;;;;;;;10.45;2.65;;;;;;;7.56;100.00;101821.81;5024717;28;20041;-77
2023/04/26 07:49:41;;;;;;;5.75;2.30;;;;;;;7.76;100.00;101813.66;5001557;28;20514;-78
2023/04/26 07:52:10;;;;;;;8.80;2.58;;;;;;;8.02;100.00;101811.81;5027495;28;21579;-78
2023/04/26 07:54:38;;;;;;;6.65;2.15;;;;;;;8.22;100.00;101806.22;5009332;28;20534;-78
2023/04/26 07:57:06;;;;;;;8.35;1.98;;;;;;;8.34;100.00;101815.34;5031866;28;20057;-77
2023/04/26 07:59:33;;;;;;;11.60;2.22;;;;;;;8.33;100.00;101816.19;4989882;28;20037;-78
2023/04/26 08:02:00;;;;;;;4.28;1.85;;;;;;;8.33;100.00;101820.56;5021397;28;20045;-77
2023/04/26 08:04:33;;;;;;;8.00;1.88;;;;;;;8.26;100.00;101818.59;5036684;28;20041;-78
2023/04/26 08:07:01;;;;;;;7.05;1.88;;;;;;;8.20;100.00;101830.72;5024779;28;20049;-79
2023/04/26 08:09:29;;;;;;;2.90;1.90;;;;;;;8.14;100.00;101833.16;5033388;28;20044;-80
2023/04/26 08:11:57;;;;;;;6.72;1.88;;;;;;;8.13;100.00;101828.78;5024308;28;20041;-78
2023/04/26 08:14:24;;;;;;;3.88;1.45;;;;;;;8.12;100.00;101832.22;4990814;28;20169;-77
2023/04/26 08:16:52;;;;;;;4.43;1.23;;;;;;;8.15;100.00;101832.31;5006658;28;20059;-78
2023/04/26 08:19:20;;;;;;;5.10;1.48;;;;;;;8.15;100.00;101839.31;5049980;28;20052;-78
2023/04/26 08:21:47;;;;;;;6.63;1.65;;;;;;;8.08;100.00;101842.59;5016749;28;20045;-78
2023/04/26 08:24:14;;;;;;;4.30;1.50;;;;;;;7.98;100.00;101846.69;5027069;28;20056;-78
2023/04/26 08:26:42;;;;;;;9.35;1.77;;;;;;;7.87;100.00;101854.25;4988187;28;20049;-78
2023/04/26 08:29:09;;;;;;;6.53;1.35;;;;;;;7.80;100.00;101847.03;5045929;28;20399;-77
2023/04/26 08:31:37;;;;;;;3.67;1.77;;;;;;;7.79;100.00;101853.13;4963514;28;20053;-78
2023/04/26 08:34:05;;;;;;;7.03;1.40;;;;;;;7.79;100.00;101856.63;5025457;28;20061;-78
2023/04/26 08:36:38;;;;;;;3.85;1.35;;;;;;;7.89;100.00;101847.31;4992820;28;20054;-78
2023/04/26 08:39:05;;;;;;;10.18;2.30;;;;;;;8.00;100.00;101858.13;5028309;28;20042;-78
2023/04/26 08:41:36;;;;;;;3.25;1.20;;;;;;;8.11;100.00;101863.69;5012053;28;20044;-78
2023/04/26 08:44:04;;;;;;;4.03;1.33;;;;;;;8.08;100.00;101880.25;5029806;28;20049;-78
2023/04/26 08:46:49;;;;;;;4.35;1.13;;;;;;;7.85;100.00;101889.16;4978944;28;20891;-78
2023/04/26 08:49:40;;;;;;;5.00;1.08;;;;;;;7.53;100.00;101897.78;5026194;28;20693;-77
2023/04/26 08:52:10;;;;;;;2.63;1.40;;;;;;;7.20;100.00;101903.69;5017846;28;20604;-77
2023/04/26 08:54:39;;;;;;;3.85;1.25;;;;;;;7.00;100.00;101900.38;5015667;28;20045;-78
2023/04/26 08:57:07;;;;;;;3.08;1.20;;;;;;;6.78;100.00;101906.59;5014869;28;20052;-77
2023/04/26 08:59:36;;;;;;;3.28;1.40;;;;;;;6.60;100.00;101908.56;5025799;28;20072;-77
2023/04/26 09:02:05;;;;;;;4.72;1.38;;;;;;;6.54;100.00;101901.38;5001687;28;20052;-77
2023/04/26 09:04:33;;;;;;;3.63;1.10;;;;;;;6.58;100.00;101897.16;5020595;28;20075;-77
2023/04/26 09:07:03;;;;;;;3.70;1.65;;;;;;;6.63;100.00;101890.34;5014357;28;20060;-77
2023/04/26 09:09:36;;;;;;;4.00;1.30;;;;;;;6.74;100.00;101883.75;5028933;28;20037;-77
2023/04/26 09:12:04;;;;;;;2.05;1.40;;;;;;;6.92;100.00;101880.91;5021209;28;20042;-77
2023/04/26 09:14:32;;;;;;;4.13;1.42;;;;;;;7.12;100.00;101881.56;5029332;28;20053;-77
2023/04/26 09:16:59;;;;;;;7.18;1.83;;;;;;;7.32;100.00;101884.88;5036929;28;20056;-77
2023/04/26 09:19:38;;;;;;;5.03;1.13;;;;;;;7.48;100.00;101888.88;4992082;28;20044;-77
2023/04/26 09:22:06;;;;;;;1.40;1.02;;;;;;;7.57;100.00;101883.91;5042419;28;20056;-77
2023/04/26 09:24:51;;;;;;;3.72;1.05;;;;;;;7.68;100.00;101886.91;5007065;28;20053;-77
2023/04/26 09:27:20;;;;;;;2.60;1.10;;;;;;;7.78;100.00;101886.31;5030618;28;20041;-77
2023/04/26 09:30:09;;;;;;;3.47;1.30;;;;;;;7.92;100.00;101881.53;5046530;28;20422;-78
2023/04/26 09:32:47;;;;;;;4.28;1.30;;;;;;;8.01;100.00;101880.91;5044781;28;20055;-78
2023/04/26 09:35:45;;;;;;;4.18;1.13;;;;;;;8.11;100.00;101869.84;4973581;28;20037;-77
2023/04/26 09:38:16;;;;;;;2.45;0.90;;;;;;;8.22;100.00;101878.00;5032641;28;20138;-77
2023/04/26 09:40:46;;;;;;;5.30;1.23;;;;;;;8.30;100.00;101876.53;5012525;28;20431;-77
2023/04/26 09:43:18;;;;;;;4.82;1.10;;;;;;;8.40;100.00;101872.41;5031327;28;20494;-79
2023/04/26 09:45:48;;;;;;;3.55;1.40;;;;;;;8.54;100.00;101868.50;5047820;28;20056;-79
2023/04/26 09:48:21;;;;;;;3.10;1.48;;;;;;;8.62;100.00;101875.66;5062610;28;20505;-78
2023/04/26 09:50:51;;;;;;;3.95;1.20;;;;;;;8.65;100.00;101873.13;4998410;28;20040;-79
2023/04/26 09:53:33;;;;;;;7.00;2.13;;;;;;;8.68;100.00;101860.97;5036768;28;20517;-79
2023/04/26 09:56:10;;;;;;;2.85;1.20;;;;;;;8.81;100.00;101859.56;5027772;28;20041;-79
2023/04/26 09:58:57;;;;;;;6.50;2.30;;;;;;;8.88;100.00;101860.59;5013597;28;20064;-80
2023/04/26 10:01:28;;;;;;;5.93;1.92;;;;;;;9.00;100.00;101862.66;5036554;28;20049;-79
2023/04/26 10:03:59;;;;;;;5.45;1.77;;;;;;;9.21;100.00;101860.59;5030871;28;20424;-79
2023/04/26 10:06:27;;;;;;;;;;;;;;;9.38;100.00;101855.75;5014484;28;20052;-78
2023/04/26 10:08:56;;;;;;;5.40;1.48;;;;;;;9.49;100.00;101859.53;5030301;28;19928;-82
2023/04/26 10:11:24;;;;;;;6.18;1.70;;;;;;;9.48;100.00;101867.38;5006031;28;20042;-78
2023/04/26 10:13:51;;;;;;;5.97;1.13;;;;;;;9.33;100.00;101867.91;5034156;28;20046;-79
2023/04/26 10:16:20;;;;;;;3.30;1.23;;;;;;;9.12;100.00;101879.66;5026516;28;20061;-78
2023/04/26 10:18:48;;;;;;;5.07;1.38;;;;;;;9.06;100.00;101876.00;5019232;28;20049;-79
2023/04/26 10:21:21;;;;;;;5.65;1.42;;;;;;;9.21;100.00;101871.13;4991457;28;20045;-79
2023/04/26 10:23:49;;;;;;;5.00;1.60;;;;;;;9.38;100.00;101865.41;5046393;28;20053;-80
2023/04/26 10:26:46;;;;;;;6.57;2.15;;;;;;;9.43;100.00;101862.00;5016773;28;20060;-79
2023/04/26 10:29:13;;;;;;;4.18;1.30;;;;;;;9.42;100.00;101868.13;5031640;28;20041;-77
2023/04/26 10:32:05;;;;;;;5.97;1.60;;;;;;;9.47;100.00;101862.94;5049183;28;20045;-77
2023/04/26 10:34:35;;;;;;;7.72;1.58;;;;;;;9.43;100.00;101862.00;5014305;28;20178;-79
2023/04/26 10:37:13;;;;;;;8.57;1.90;;;;;;;9.35;100.00;101860.94;4982621;28;20068;-78
2023/04/26 10:39:42;;;;;;;6.65;1.38;;;;;;;9.20;100.00;101864.06;5025351;28;20486;-77
2023/04/26 10:42:22;;;;;;;4.97;1.65;;;;;;;9.13;100.00;101868.28;5036769;28;20048;-77
2023/04/26 10:44:59;;;;;;;5.15;1.52;;;;;;;9.18;100.00;101861.38;5024171;28;20494;-78
2023/04/26 10:47:28;;;;;;;5.03;1.27;;;;;;;9.17;100.00;101864.00;5037713;28;20546;-77
2023/04/26 10:50:09;;;;;;;8.98;1.67;;;;;;;9.11;100.00;101861.19;5027511;28;20494;-78
2023/04/26 10:52:56;;;;;;;6.78;1.58;;;;;;;9.10;100.00;101862.94;5002627;28;20056;-79
2023/04/26 10:55:40;;;;;;;7.18;1.40;;;;;;;9.17;100.00;101856.13;5028720;28;20045;-79
2023/04/26 10:58:27;;;;;;;3.45;1.25;;;;;;;9.37;100.00;101851.31;5038014;28;20359;-78
2023/04/26 11:01:15;;;;;;;4.18;1.13;;;;;;;9.52;100.00;101859.56;5049893;28;20048;-79
2023/04/26 11:04:00;;;;;;;5.07;1.38;;;;;;;9.67;100.00;101851.16;5047195;28;20048;-79
2023/04/26 11:06:48;;;;;;;4.85;1.10;;;;;;;9.93;100.00;101853.50;5031843;28;20059;-79
2023/04/26 11:09:39;;;;;;;3.97;1.10;;;;;;;10.05;100.00;101853.75;5005917;28;20470;-79
2023/04/26 11:12:11;;;;;;;5.70;1.42;;;;;;;10.20;100.00;101854.94;5045173;28;20051;-78
2023/04/26 11:14:43;;;;;;;2.80;1.00;;;;;;;10.23;100.00;101862.91;5043307;28;20045;-78
2023/04/26 11:17:11;;;;;;;1.73;1.27;;;;;;;10.08;100.00;101860.84;5024749;28;20057;-78
2023/04/26 11:19:40;;;;;;;4.20;1.00;;;;;;;9.87;100.00;101874.44;5017669;28;20049;-80
2023/04/26 11:22:08;;;;;;;2.97;1.23;;;;;;;9.66;100.00;101869.53;4970693;28;20054;-78
2023/04/26 11:24:35;;;;;;;3.95;1.10;;;;;;;9.52;100.00;101877.13;5023081;28;20045;-79
2023/04/26 11:27:10;;;;;;;3.30;1.63;;;;;;;9.35;100.00;101877.59;5042031;28;20071;-78
2023/04/26 11:29:38;;;;;;;4.75;1.13;;;;;;;9.19;100.00;101885.97;5019838;28;20057;-78
2023/04/26 11:32:05;;;;;;;3.08;1.42;;;;;;;8.99;100.00;101885.44;5049603;28;20052;-79
2023/04/26 11:34:34;;;;;;;2.03;1.42;;;;;;;8.80;100.00;101891.94;5048453;28;20060;-78
2023/04/26 11:37:03;;;;;;;3.75;1.35;;;;;;;8.62;100.00;101894.97;5034389;28;20537;-78